Time;durP1;ratioP1;P1;durP2;ratioP2;P2;SDS_P1;SDS_P2;PMS_P1;PMS_P2;Temp;Humidity;BMP_temperature;BMP_pressure;BME280_temperature;BME280_humidity;BME280_pressure;Samples;Min_cycle;Max_cycle;Signal;HPM_P1;HPM_P2
2023/02/12 00:00:40;;;;;;;15.95;10.45;;;;;;;1.67;100.00;102435.97;5018858;28;20049;-74
2023/02/12 00:03:06;;;;;;;19.95;11.60;;;;;;;1.68;100.00;102442.28;5019174;28;20057;-73
2023/02/12 00:05:32;;;;;;;17.25;11.02;;;;;;;1.71;100.00;102433.69;5035253;28;20041;-74
2023/02/12 00:07:57;;;;;;;16.88;11.45;;;;;;;1.71;100.00;102433.69;5018964;28;20029;-73
2023/02/12 00:10:23;;;;;;;17.98;11.60;;;;;;;1.69;100.00;102436.63;5018664;28;20091;-73
2023/02/12 00:12:48;;;;;;;17.85;10.85;;;;;;;1.70;100.00;102430.13;5036264;28;20033;-73
2023/02/12 00:15:13;;;;;;;19.15;12.35;;;;;;;1.72;100.00;102421.69;5012562;28;20029;-74
2023/02/12 00:17:39;;;;;;;17.00;11.50;;;;;;;1.70;100.00;102424.63;5030711;28;20037;-74
2023/02/12 00:20:05;;;;;;;20.48;13.05;;;;;;;1.70;100.00;102423.75;5036285;28;20037;-74
2023/02/12 00:22:30;;;;;;;20.08;12.68;;;;;;;1.71;100.00;102420.00;5035386;28;20107;-74
2023/02/12 00:24:56;;;;;;;20.42;13.10;;;;;;;1.72;100.00;102419.81;5031689;28;20032;-74
2023/02/12 00:27:22;;;;;;;22.38;13.15;;;;;;;1.72;100.00;102416.22;5056020;28;20036;-73
2023/02/12 00:29:47;;;;;;;19.75;13.65;;;;;;;1.75;100.00;102424.06;5054718;28;20086;-74
2023/02/12 00:32:13;;;;;;;21.17;14.85;;;;;;;1.75;100.00;102422.16;5054015;28;20040;-74
2023/02/12 00:34:39;;;;;;;20.88;13.90;;;;;;;1.77;100.00;102419.25;5025819;28;20060;-73
2023/02/12 00:37:05;;;;;;;21.92;14.13;;;;;;;1.77;100.00;102413.75;5034829;28;20156;-74
2023/02/12 00:39:30;;;;;;;22.42;14.25;;;;;;;1.81;100.00;102415.06;5018216;28;20084;-74
2023/02/12 00:41:56;;;;;;;20.85;13.77;;;;;;;1.84;100.00;102417.47;5034571;28;20075;-74
2023/02/12 00:44:21;;;;;;;22.88;15.07;;;;;;;1.85;100.00;102416.41;5035594;28;20398;-74
2023/02/12 00:46:47;;;;;;;19.60;13.10;;;;;;;1.88;100.00;102423.41;5035321;28;20037;-74
2023/02/12 00:49:13;;;;;;;22.55;14.73;;;;;;;1.88;100.00;102416.03;5034418;28;20029;-73
2023/02/12 00:51:38;;;;;;;24.30;14.18;;;;;;;1.90;100.00;102424.91;5034424;28;20030;-74
2023/02/12 00:54:04;;;;;;;21.27;14.45;;;;;;;1.89;100.00;102425.94;5037582;28;20040;-74
2023/02/12 00:56:29;;;;;;;19.30;13.65;;;;;;;1.90;100.00;102424.91;5035816;28;20033;-74
2023/02/12 00:58:55;;;;;;;21.13;14.43;;;;;;;1.94;100.00;102433.59;5035263;28;20030;-74
2023/02/12 01:01:20;;;;;;;28.45;17.30;;;;;;;1.94;100.00;102425.38;5035563;28;20083;-73
2023/02/12 01:03:46;;;;;;;23.40;15.15;;;;;;;1.94;100.00;102426.22;5035509;28;20493;-73
2023/02/12 01:06:11;;;;;;;23.70;15.15;;;;;;;1.94;100.00;102423.47;5035564;28;20040;-74
2023/02/12 01:08:37;;;;;;;21.63;14.52;;;;;;;1.98;100.00;102426.72;5035719;28;20029;-74
2023/02/12 01:11:03;;;;;;;21.17;14.40;;;;;;;1.98;100.00;102433.03;5035333;28;20033;-73
2023/02/12 01:13:29;;;;;;;23.65;15.93;;;;;;;1.99;100.00;102423.75;5017576;28;20032;-74
2023/02/12 01:16:11;;;;;;;20.10;13.35;;;;;;;2.01;100.00;102421.69;5054367;28;20029;-73
2023/02/12 01:18:37;;;;;;;24.10;16.15;;;;;;;2.01;100.00;102421.69;5027719;28;20494;-74
2023/02/12 01:21:11;;;;;;;24.35;16.10;;;;;;;2.01;100.00;102424.44;5035217;28;20103;-74
2023/02/12 01:23:37;;;;;;;23.48;15.13;;;;;;;2.03;100.00;102409.69;5035356;28;20112;-74
2023/02/12 01:26:03;;;;;;;25.27;17.08;;;;;;;1.99;100.00;102407.31;5034017;28;20034;-74
2023/02/12 01:28:29;;;;;;;24.88;16.58;;;;;;;2.00;100.00;102406.28;5036564;28;20041;-73
2023/02/12 01:30:54;;;;;;;23.58;15.35;;;;;;;2.00;100.00;102406.28;5037221;28;20032;-74
2023/02/12 01:33:20;;;;;;;28.88;17.20;;;;;;;2.00;100.00;102398.06;5054935;28;20033;-74
2023/02/12 01:35:45;;;;;;;26.55;16.00;;;;;;;2.01;100.00;102399.75;5037219;28;20029;-73
2023/02/12 01:38:11;;;;;;;26.23;17.70;;;;;;;2.00;100.00;102398.06;5053853;28;20032;-74
2023/02/12 01:40:36;;;;;;;25.13;15.70;;;;;;;1.99;100.00;102395.50;5011944;28;20076;-74
2023/02/12 01:43:02;;;;;;;29.90;19.80;;;;;;;1.99;100.00;102396.34;5048978;28;20029;-74
2023/02/12 01:45:27;;;;;;;28.30;18.02;;;;;;;1.99;100.00;102395.50;5037076;28;20106;-73
2023/02/12 01:47:52;;;;;;;33.55;20.10;;;;;;;1.96;100.00;102387.69;5054790;28;20544;-73
2023/02/12 01:50:19;;;;;;;32.95;21.05;;;;;;;1.95;100.00;102386.84;5037724;28;20515;-73
2023/02/12 01:52:50;;;;;;;34.22;20.58;;;;;;;1.94;100.00;102385.13;5029999;28;20021;-74
2023/02/12 01:55:16;;;;;;;33.25;20.80;;;;;;;1.94;100.00;102381.53;5033839;28;20112;-73
2023/02/12 01:57:42;;;;;;;35.90;21.83;;;;;;;1.95;100.00;102389.56;5017079;28;20549;-74
2023/02/12 02:00:11;;;;;;;37.58;22.58;;;;;;;1.94;100.00;102381.53;5020605;28;20078;-73
2023/02/12 02:02:38;;;;;;;34.55;21.88;;;;;;;1.94;100.00;102387.84;5037948;28;20026;-74
2023/02/12 02:05:06;;;;;;;33.00;21.20;;;;;;;1.96;100.00;102380.31;5021775;28;20033;-74
2023/02/12 02:07:32;;;;;;;39.83;23.27;;;;;;;1.95;100.00;102378.63;5021294;28;20056;-73
2023/02/12 02:09:57;;;;;;;39.35;23.77;;;;;;;1.92;100.00;102381.75;5038821;28;20059;-74
2023/02/12 02:15:08;;;;;;;46.83;24.75;;;;;;;1.91;100.00;102377.28;5050354;28;20596;-73
2023/02/12 02:17:49;;;;;;;42.35;25.05;;;;;;;1.90;100.00;102378.34;5018383;28;20056;-74
2023/02/12 02:20:17;;;;;;;42.20;24.38;;;;;;;1.90;100.00;102374.75;5038601;28;20469;-74
2023/02/12 02:22:56;;;;;;;43.13;25.63;;;;;;;1.90;100.00;102372.00;5040923;28;20564;-74
2023/02/12 02:25:52;;;;;;;41.08;23.85;;;;;;;1.89;100.00;102362.91;5042341;28;20055;-74
2023/02/12 02:28:49;;;;;;;47.58;26.70;;;;;;;1.87;100.00;102356.81;5058116;28;20032;-73
2023/02/12 02:31:24;;;;;;;46.67;27.00;;;;;;;1.86;100.00;102357.81;5058187;28;20485;-74
2023/02/12 02:34:22;;;;;;;43.22;25.92;;;;;;;1.85;100.00;102355.28;5057018;28;20033;-74
2023/02/12 02:37:02;;;;;;;51.30;28.90;;;;;;;1.84;100.00;102354.44;5058259;28;20045;-74
2023/02/12 02:39:47;;;;;;;49.67;27.75;;;;;;;1.86;100.00;102348.75;5056991;28;20049;-73
2023/02/12 02:42:31;;;;;;;47.15;27.05;;;;;;;1.82;100.00;102351.03;5057143;28;20033;-73
2023/02/12 02:44:56;;;;;;;47.95;27.05;;;;;;;1.83;100.00;102357.34;5057753;28;20033;-74
2023/02/12 02:47:25;;;;;;;55.55;29.67;;;;;;;1.83;100.00;102349.97;5058197;28;20108;-73
2023/02/12 02:49:56;;;;;;;53.72;30.23;;;;;;;1.84;100.00;102353.56;5022678;28;20022;-74
2023/02/12 02:52:27;;;;;;;60.60;33.75;;;;;;;1.82;100.00;102348.28;5031490;28;20033;-74
2023/02/12 02:54:55;;;;;;;53.03;30.52;;;;;;;1.83;100.00;102346.41;5038052;28;20033;-74
2023/02/12 02:57:24;;;;;;;60.70;32.17;;;;;;;1.83;100.00;102358.19;5004254;28;20602;-74
2023/02/12 02:59:53;;;;;;;53.08;30.63;;;;;;;1.84;100.00;102348.97;5037653;28;20041;-74
2023/02/12 03:02:30;;;;;;;59.78;32.50;;;;;;;1.87;100.00;102348.56;5013865;28;20069;-74
2023/02/12 03:05:09;;;;;;;53.03;30.05;;;;;;;1.85;100.00;102345.16;5024664;28;20083;-73
2023/02/12 03:07:44;;;;;;;58.60;31.88;;;;;;;1.86;100.00;102344.13;5020275;28;20037;-73
2023/02/12 03:10:16;;;;;;;57.90;32.30;;;;;;;1.85;100.00;102345.16;5035756;28;20555;-74
2023/02/12 03:12:47;;;;;;;56.53;32.58;;;;;;;1.85;100.00;102347.91;5036244;28;20474;-74
2023/02/12 03:15:29;;;;;;;59.70;32.97;;;;;;;1.82;100.00;102342.81;5049672;28;20044;-74
2023/02/12 03:17:54;;;;;;;55.92;30.90;;;;;;;1.85;100.00;102345.16;5019701;28;20059;-74
2023/02/12 03:20:23;;;;;;;56.20;31.65;;;;;;;1.86;100.00;102338.63;5038279;28;20033;-74
2023/02/12 03:22:55;;;;;;;56.00;30.17;;;;;;;1.86;100.00;102338.63;5020000;28;20098;-74
2023/02/12 03:25:43;;;;;;;59.08;33.10;;;;;;;1.88;100.00;102346.69;5020133;28;20063;-74
2023/02/12 03:28:15;;;;;;;60.28;33.25;;;;;;;1.87;100.00;102340.34;5035940;28;20060;-73
2023/02/12 03:31:08;;;;;;;63.78;33.40;;;;;;;1.87;100.00;102345.00;5042969;28;20102;-74
2023/02/12 03:33:49;;;;;;;;;;;;;;;1.85;100.00;102342.44;5056354;28;20101;-74
2023/02/12 03:36:19;;;;;;;60.47;33.03;;;;;;;1.88;100.00;102336.56;5056053;28;19915;-73
2023/02/12 03:38:48;;;;;;;64.10;36.22;;;;;;;1.88;100.00;102331.09;5038974;28;20117;-74
2023/02/12 03:41:19;;;;;;;65.25;37.38;;;;;;;1.89;100.00;102334.66;5019490;28;20034;-73
2023/02/12 03:44:10;;;;;;;61.78;35.55;;;;;;;1.89;100.00;102321.81;5019383;28;20478;-73
2023/02/12 03:47:02;;;;;;;63.15;34.92;;;;;;;1.91;100.00;102332.59;5035699;28;20029;-73
2023/02/12 03:49:32;;;;;;;66.40;36.13;;;;;;;1.91;100.00;102333.44;5035254;28;20029;-73
2023/02/12 03:51:57;;;;;;;75.65;39.90;;;;;;;1.93;100.00;102328.63;5003332;28;20026;-74
2023/02/12 03:54:23;;;;;;;71.07;37.40;;;;;;;1.93;100.00;102328.63;5006926;28;20021;-74
2023/02/12 03:56:53;;;;;;;72.75;37.45;;;;;;;1.94;100.00;102330.31;5035467;28;20537;-74
2023/02/12 03:59:19;;;;;;;71.68;37.92;;;;;;;1.93;100.00;102328.63;5019031;28;20029;-73
2023/02/12 04:01:44;;;;;;;69.10;38.63;;;;;;;1.97;100.00;102331.81;5019068;28;20037;-74
2023/02/12 04:04:10;;;;;;;71.70;36.95;;;;;;;1.96;100.00;102324.66;5035441;28;20036;-74
2023/02/12 04:06:35;;;;;;;71.13;38.03;;;;;;;1.95;100.00;102323.81;5035529;28;20026;-74
2023/02/12 04:09:06;;;;;;;70.70;37.67;;;;;;;1.97;100.00;102323.59;5018945;28;20040;-73
2023/02/12 04:11:59;;;;;;;72.35;37.90;;;;;;;1.99;100.00;102329.75;5019110;28;20060;-73
2023/02/12 04:14:39;;;;;;;73.68;38.75;;;;;;;1.98;100.00;102328.91;5041701;28;20031;-74
2023/02/12 04:17:16;;;;;;;70.53;37.92;;;;;;;2.00;100.00;102332.28;5035904;28;20069;-74
2023/02/12 04:19:52;;;;;;;69.07;37.72;;;;;;;2.02;100.00;102329.34;5035323;28;20029;-74
2023/02/12 04:22:17;;;;;;;64.10;36.70;;;;;;;2.01;100.00;102327.66;5034191;28;20045;-74
2023/02/12 04:24:53;;;;;;;68.90;37.65;;;;;;;1.99;100.00;102330.59;5035103;28;20391;-73
2023/02/12 04:27:32;;;;;;;68.30;37.78;;;;;;;1.95;100.00;102337.50;5035056;28;20033;-73
2023/02/12 04:30:19;;;;;;;69.75;36.88;;;;;;;1.96;100.00;102339.19;5002317;28;20037;-73
2023/02/12 04:32:54;;;;;;;67.70;38.17;;;;;;;1.94;100.00;102333.06;5034737;28;20041;-73
2023/02/12 04:35:27;;;;;;;64.60;35.45;;;;;;;1.95;100.00;102329.28;5019017;28;20051;-74
2023/02/12 04:37:56;;;;;;;65.20;36.33;;;;;;;1.95;100.00;102329.28;5011950;28;20044;-73
2023/02/12 04:40:21;;;;;;;67.72;37.22;;;;;;;1.95;100.00;102332.03;5002269;28;20522;-73
2023/02/12 04:42:48;;;;;;;68.43;37.40;;;;;;;1.95;100.00;102331.16;5030686;28;20090;-73
2023/02/12 04:45:22;;;;;;;67.03;36.95;;;;;;;1.96;100.00;102320.00;5055737;28;20067;-74
2023/02/12 04:47:48;;;;;;;68.13;34.95;;;;;;;1.94;100.00;102326.72;5039077;28;20025;-73
2023/02/12 04:50:13;;;;;;;72.03;36.20;;;;;;;1.93;100.00;102325.03;5001821;28;20437;-74
2023/02/12 04:52:39;;;;;;;68.15;35.72;;;;;;;1.93;100.00;102330.53;5037367;28;20509;-73
2023/02/12 04:55:05;;;;;;;69.18;37.00;;;;;;;1.92;100.00;102324.19;5021730;28;20030;-74
2023/02/12 04:57:30;;;;;;;63.58;35.13;;;;;;;1.92;100.00;102328.81;5034739;28;20036;-74
2023/02/12 04:59:56;;;;;;;64.80;34.58;;;;;;;1.92;100.00;102326.06;5034241;28;20030;-73
2023/02/12 05:02:21;;;;;;;65.63;36.03;;;;;;;1.91;100.00;102336.19;5035630;28;20032;-74
2023/02/12 05:04:49;;;;;;;66.70;36.63;;;;;;;1.90;100.00;102337.22;5034137;28;20021;-74
2023/02/12 05:07:14;;;;;;;69.45;36.38;;;;;;;1.89;100.00;102335.50;5017864;28;20040;-74
2023/02/12 05:09:40;;;;;;;62.97;33.88;;;;;;;1.90;100.00;102331.75;5005536;28;20026;-74
2023/02/12 05:12:05;;;;;;;63.90;33.38;;;;;;;1.89;100.00;102334.66;5034251;28;20052;-73
2023/02/12 05:14:31;;;;;;;59.45;31.85;;;;;;;1.90;100.00;102337.22;5042817;28;20051;-74
2023/02/12 05:16:56;;;;;;;61.20;33.65;;;;;;;1.89;100.00;102341.00;5052868;28;20021;-74
2023/02/12 05:19:22;;;;;;;60.08;34.00;;;;;;;1.88;100.00;102335.72;5036479;28;20091;-74
2023/02/12 05:21:49;;;;;;;57.67;31.52;;;;;;;1.87;100.00;102337.63;5034794;28;20422;-74
2023/02/12 05:24:14;;;;;;;61.17;31.08;;;;;;;1.90;100.00;102342.72;5034085;28;20452;-74
2023/02/12 05:26:40;;;;;;;57.88;31.70;;;;;;;1.88;100.00;102350.25;5035047;28;20034;-73
2023/02/12 05:29:05;;;;;;;59.67;32.47;;;;;;;1.90;100.00;102347.34;5033923;28;20029;-74
2023/02/12 05:31:31;;;;;;;60.90;31.27;;;;;;;1.88;100.00;102346.69;5035099;28;20474;-74
2023/02/12 05:33:56;;;;;;;59.78;33.33;;;;;;;1.89;100.00;102346.47;5021400;28;20038;-74
2023/02/12 05:36:22;;;;;;;58.38;32.13;;;;;;;1.89;100.00;102348.38;5039723;28;20374;-74
2023/02/12 05:38:48;;;;;;;60.92;34.03;;;;;;;1.87;100.00;102354.06;5034831;28;20033;-74
2023/02/12 05:41:15;;;;;;;60.72;31.73;;;;;;;1.87;100.00;102340.34;5033718;28;20033;-73
2023/02/12 05:43:41;;;;;;;56.53;30.60;;;;;;;1.88;100.00;102347.53;5017130;28;20032;-74
2023/02/12 05:46:07;;;;;;;58.15;31.83;;;;;;;1.89;100.00;102353.84;5034894;28;20678;-74
2023/02/12 05:48:32;;;;;;;54.95;30.35;;;;;;;1.88;100.00;102350.25;5017480;28;20029;-74
2023/02/12 05:51:05;;;;;;;57.67;32.30;;;;;;;1.87;100.00;102354.06;5034846;28;20029;-74
2023/02/12 05:53:31;;;;;;;58.22;31.35;;;;;;;1.87;100.00;102353.22;5035294;28;20033;-73
2023/02/12 05:56:16;;;;;;;58.97;31.77;;;;;;;1.85;100.00;102352.53;5034618;28;20030;-73
2023/02/12 05:58:43;;;;;;;58.17;31.08;;;;;;;1.83;100.00;102351.88;4993696;28;20025;-74
2023/02/12 06:01:13;;;;;;;58.42;31.60;;;;;;;1.82;100.00;102348.28;5034752;28;20029;-74
2023/02/12 06:03:39;;;;;;;58.15;30.40;;;;;;;1.82;100.00;102345.56;5025094;28;20030;-74
2023/02/12 06:06:04;;;;;;;56.30;29.65;;;;;;;1.79;100.00;102343.19;5033561;28;20037;-74
2023/02/12 06:08:30;;;;;;;56.28;30.15;;;;;;;1.78;100.00;102347.84;5017745;28;20044;-74
2023/02/12 06:10:59;;;;;;;56.97;30.23;;;;;;;1.78;100.00;102339.63;5033694;28;20032;-74
2023/02/12 06:13:25;;;;;;;59.45;32.40;;;;;;;1.79;100.00;102345.94;5008950;28;20029;-73
2023/02/12 06:15:50;;;;;;;55.38;30.00;;;;;;;1.73;100.00;102339.34;5053319;28;20024;-74
2023/02/12 06:18:16;;;;;;;49.85;28.30;;;;;;;1.72;100.00;102334.03;5025213;28;20029;-73
2023/02/12 06:20:41;;;;;;;53.85;29.05;;;;;;;1.71;100.00;102333.19;5035050;28;20043;-74
2023/02/12 06:23:09;;;;;;;55.53;29.05;;;;;;;1.70;100.00;102336.09;5054782;28;20108;-74
2023/02/12 06:25:34;;;;;;;52.20;28.52;;;;;;;1.65;100.00;102333.13;5053493;28;20032;-74
2023/02/12 06:28:00;;;;;;;50.20;27.55;;;;;;;1.65;100.00;102333.13;5054342;28;20082;-73
2023/02/12 06:30:25;;;;;;;48.10;27.42;;;;;;;1.62;100.00;102336.25;5054429;28;20450;-74
2023/02/12 06:32:51;;;;;;;50.55;28.05;;;;;;;1.60;100.00;102332.84;5054469;28;20029;-73
2023/02/12 06:35:16;;;;;;;52.53;28.13;;;;;;;1.56;100.00;102330.47;5053464;28;20470;-74
2023/02/12 06:37:45;;;;;;;51.13;27.73;;;;;;;1.54;100.00;102328.97;5036774;28;20512;-74
2023/02/12 06:40:11;;;;;;;48.25;26.75;;;;;;;1.54;100.00;102323.50;5054293;28;20111;-74
2023/02/12 06:42:36;;;;;;;50.40;27.75;;;;;;;1.47;100.00;102323.38;5054498;28;20081;-74
2023/02/12 06:45:02;;;;;;;46.67;27.67;;;;;;;1.46;100.00;102324.44;5018610;28;20044;-73
2023/02/12 06:47:27;;;;;;;48.10;27.05;;;;;;;1.45;100.00;102333.69;5045172;28;20025;-74
2023/02/12 06:49:53;;;;;;;47.40;26.00;;;;;;;1.43;100.00;102313.00;5036790;28;20088;-74
2023/02/12 06:52:20;;;;;;;47.47;26.02;;;;;;;1.43;100.00;102310.28;5004182;28;20029;-74
2023/02/12 06:54:45;;;;;;;43.05;25.13;;;;;;;1.41;100.00;102324.13;5022072;28;20462;-74
2023/02/12 06:57:11;;;;;;;46.78;27.13;;;;;;;1.42;100.00;102328.59;5047931;28;20024;-73
2023/02/12 06:59:36;;;;;;;47.15;26.15;;;;;;;1.39;100.00;102328.94;5057502;28;20428;-73
2023/02/12 07:02:01;;;;;;;46.38;26.02;;;;;;;1.34;100.00;102334.16;5057879;28;20025;-74
2023/02/12 07:04:27;;;;;;;47.88;26.63;;;;;;;1.34;100.00;102336.91;5050506;28;20033;-74
2023/02/12 07:06:52;;;;;;;43.78;24.20;;;;;;;1.30;100.00;102335.56;5037929;28;20038;-73
2023/02/12 07:09:18;;;;;;;45.85;25.42;;;;;;;1.28;100.00;102334.88;5017557;28;20029;-74
2023/02/12 07:11:43;;;;;;;41.55;23.95;;;;;;;1.26;100.00;102324.16;5036342;28;20057;-74
2023/02/12 07:14:14;;;;;;;44.65;24.60;;;;;;;1.26;100.00;102328.78;5040785;28;20035;-74
2023/02/12 07:16:39;;;;;;;47.53;26.52;;;;;;;1.24;100.00;102331.69;5007047;28;20029;-74
2023/02/12 07:19:05;;;;;;;41.72;23.85;;;;;;;1.22;100.00;102332.91;5021392;28;20367;-74
2023/02/12 07:21:31;;;;;;;42.65;23.38;;;;;;;1.23;100.00;102340.09;5021647;28;20034;-74
2023/02/12 07:23:56;;;;;;;42.25;22.70;;;;;;;1.22;100.00;102339.22;5036198;28;20029;-73
2023/02/12 07:26:21;;;;;;;39.90;22.38;;;;;;;1.24;100.00;102352.75;5037573;28;20041;-74
2023/02/12 07:28:48;;;;;;;42.20;22.70;;;;;;;1.18;100.00;102337.06;5035708;28;20048;-74
2023/02/12 07:31:22;;;;;;;41.55;23.38;;;;;;;1.19;100.00;102350.56;5037245;28;20083;-74
2023/02/12 07:33:48;;;;;;;44.13;24.75;;;;;;;1.20;100.00;102351.41;5035869;28;20034;-74
2023/02/12 07:36:19;;;;;;;43.00;23.27;;;;;;;1.19;100.00;102356.03;5036080;28;20033;-74
2023/02/12 07:38:44;;;;;;;43.63;22.55;;;;;;;1.20;100.00;102362.34;5036020;28;20433;-74
2023/02/12 07:41:14;;;;;;;43.75;22.85;;;;;;;1.24;100.00;102353.59;5037236;28;20033;-74
2023/02/12 07:43:40;;;;;;;42.47;23.70;;;;;;;1.21;100.00;102359.44;5042842;28;20065;-74
2023/02/12 07:46:15;;;;;;;39.55;22.17;;;;;;;1.20;100.00;102368.69;5055756;28;20052;-73
2023/02/12 07:48:40;;;;;;;43.08;23.00;;;;;;;1.20;100.00;102360.50;5052047;28;20051;-73
2023/02/12 07:51:07;;;;;;;35.33;20.58;;;;;;;1.24;100.00;102361.78;5036982;28;20030;-74
2023/02/12 07:53:32;;;;;;;42.45;22.60;;;;;;;1.22;100.00;102366.59;5036729;28;20025;-74
2023/02/12 07:56:08;;;;;;;36.10;21.75;;;;;;;1.27;100.00;102369.63;5035459;28;20071;-74
2023/02/12 07:58:33;;;;;;;36.60;21.92;;;;;;;1.34;100.00;102375.22;5036735;28;20067;-74
2023/02/12 08:00:59;;;;;;;38.28;21.98;;;;;;;1.44;100.00;102374.94;5043615;28;20083;-74
2023/02/12 08:03:27;;;;;;;41.50;22.38;;;;;;;1.46;100.00;102373.72;5036835;28;20124;-74
2023/02/12 08:05:52;;;;;;;37.45;21.58;;;;;;;1.52;100.00;102375.69;5035471;28;20441;-74
2023/02/12 08:08:18;;;;;;;38.90;22.40;;;;;;;1.57;100.00;102380.63;5035682;28;20025;-74
2023/02/12 08:10:43;;;;;;;40.38;22.45;;;;;;;1.60;100.00;102374.75;5036636;28;20025;-74
2023/02/12 08:13:09;;;;;;;36.60;21.00;;;;;;;1.65;100.00;102353.13;5036216;28;20034;-74
2023/02/12 08:15:34;;;;;;;35.35;21.27;;;;;;;1.69;100.00;102353.59;5052710;28;20051;-74
2023/02/12 08:18:00;;;;;;;34.30;21.30;;;;;;;1.73;100.00;102357.66;5045942;28;20037;-74
2023/02/12 08:20:26;;;;;;;38.38;22.52;;;;;;;1.77;100.00;102358.97;5036363;28;20045;-74
2023/02/12 08:22:51;;;;;;;37.65;21.27;;;;;;;1.81;100.00;102362.16;5035352;28;20021;-73
2023/02/12 08:25:17;;;;;;;37.97;21.13;;;;;;;1.84;100.00;102359.03;5031516;28;20040;-74
2023/02/12 08:27:42;;;;;;;35.85;21.50;;;;;;;1.86;100.00;102357.81;5024389;28;20041;-74
2023/02/12 08:30:08;;;;;;;37.75;21.40;;;;;;;1.90;100.00;102359.16;5051514;28;20025;-74
2023/02/12 08:32:33;;;;;;;36.28;20.73;;;;;;;1.93;100.00;102364.25;5034992;28;20519;-74
2023/02/12 08:34:59;;;;;;;36.25;21.42;;;;;;;1.94;100.00;102360.44;5034881;28;20052;-74
2023/02/12 08:37:24;;;;;;;36.75;21.17;;;;;;;2.00;100.00;102367.91;5035972;28;20473;-73
2023/02/12 08:39:50;;;;;;;37.28;20.73;;;;;;;2.04;100.00;102371.13;5037856;28;20054;-74
2023/02/12 08:42:15;;;;;;;37.30;21.67;;;;;;;2.07;100.00;102376.22;5018407;28;20032;-73
2023/02/12 08:44:41;;;;;;;36.65;21.88;;;;;;;2.12;100.00;102376.50;5034593;28;20033;-74
2023/02/12 08:47:08;;;;;;;35.38;20.65;;;;;;;2.17;100.00;102384.13;5018049;28;20109;-74
2023/02/12 08:49:34;;;;;;;39.30;20.88;;;;;;;2.20;100.00;102383.75;5035811;28;20026;-73
2023/02/12 08:52:01;;;;;;;37.20;21.55;;;;;;;2.23;100.00;102386.97;5035794;28;20456;-74
2023/02/12 08:54:27;;;;;;;40.70;23.38;;;;;;;2.28;100.00;102383.63;5036732;28;20049;-74
2023/02/12 08:56:57;;;;;;;40.38;23.52;;;;;;;2.32;100.00;102384.97;5041536;28;20116;-74
2023/02/12 08:59:22;;;;;;;37.28;22.00;;;;;;;2.38;100.00;102377.84;5055302;28;20122;-74
2023/02/12 09:01:49;;;;;;;39.53;23.15;;;;;;;2.40;100.00;102387.56;5021204;28;20029;-73
2023/02/12 09:04:17;;;;;;;43.67;23.25;;;;;;;2.44;100.00;102377.06;5031981;28;20034;-74
2023/02/12 09:06:42;;;;;;;44.05;24.48;;;;;;;2.49;100.00;102379.22;5034397;28;20040;-73
2023/02/12 09:09:08;;;;;;;41.28;22.65;;;;;;;2.52;100.00;102381.59;5033762;28;20449;-74
2023/02/12 09:11:33;;;;;;;37.53;21.85;;;;;;;2.57;100.00;102376.38;5034289;28;20029;-74
2023/02/12 09:14:04;;;;;;;39.88;22.98;;;;;;;2.61;100.00;102380.41;5020809;28;20063;-74
2023/02/12 09:16:31;;;;;;;45.08;24.00;;;;;;;2.65;100.00;102385.31;5037731;28;20118;-74
2023/02/12 09:18:56;;;;;;;39.47;23.52;;;;;;;2.68;100.00;102378.59;5020391;28;20029;-74
2023/02/12 09:21:22;;;;;;;40.80;23.35;;;;;;;2.72;100.00;102379.88;5008718;28;20089;-73
2023/02/12 09:23:47;;;;;;;37.28;22.33;;;;;;;2.77;100.00;102382.03;5035155;28;20021;-74
2023/02/12 09:26:14;;;;;;;42.90;23.35;;;;;;;2.83;100.00;102384.00;5035453;28;20030;-73
2023/02/12 09:28:40;;;;;;;43.60;24.27;;;;;;;2.88;100.00;102396.09;5033585;28;20029;-73
2023/02/12 09:31:07;;;;;;;39.92;23.33;;;;;;;2.91;100.00;102392.94;5033871;28;20033;-74
2023/02/12 09:33:33;;;;;;;42.97;23.83;;;;;;;2.95;100.00;102395.28;5021589;28;20032;-74
2023/02/12 09:36:05;;;;;;;41.90;23.88;;;;;;;3.01;100.00;102391.75;5037559;28;20037;-74
2023/02/12 09:38:31;;;;;;;;;;;;;;;3.04;100.00;102392.22;5025848;28;20045;-74
2023/02/12 09:41:39;;;;;;;45.50;25.00;;;;;;;3.09;100.00;102399.84;5033908;28;19917;-74
2023/02/12 09:44:20;;;;;;;41.78;23.83;;;;;;;3.14;100.00;102394.59;5044608;28;20071;-74
2023/02/12 09:46:50;;;;;;;44.78;24.95;;;;;;;3.20;100.00;102385.56;5054836;28;20028;-74
2023/02/12 09:49:31;;;;;;;44.25;23.98;;;;;;;3.25;100.00;102383.06;5017382;28;20113;-74
2023/02/12 09:51:56;;;;;;;42.60;23.77;;;;;;;3.28;100.00;102388.16;5034875;28;20033;-73
2023/02/12 09:54:23;;;;;;;45.38;23.80;;;;;;;3.32;100.00;102391.38;5020246;28;20056;-74
2023/02/12 09:56:53;;;;;;;43.50;23.63;;;;;;;3.35;100.00;102385.50;5033686;28;20029;-74
2023/02/12 09:59:29;;;;;;;43.45;24.45;;;;;;;3.41;100.00;102390.19;5017271;28;20387;-74
2023/02/12 10:01:56;;;;;;;43.13;24.48;;;;;;;3.41;100.00;102389.34;5024310;28;20033;-74
2023/02/12 10:04:22;;;;;;;45.78;25.08;;;;;;;3.46;100.00;102386.84;5022365;28;20035;-74
2023/02/12 10:06:53;;;;;;;48.00;25.83;;;;;;;3.48;100.00;102391.09;5034826;28;20406;-74
2023/02/12 10:09:28;;;;;;;44.83;24.52;;;;;;;3.51;100.00;102398.03;5017661;28;20105;-74
2023/02/12 10:12:02;;;;;;;44.15;24.55;;;;;;;3.53;100.00;102393.22;5034633;28;20552;-74
2023/02/12 10:14:40;;;;;;;45.70;25.98;;;;;;;3.60;100.00;102388.63;5040620;28;20083;-74
2023/02/12 10:17:24;;;;;;;42.38;23.52;;;;;;;3.63;100.00;102382.72;5052501;28;20113;-75
2023/02/12 10:19:59;;;;;;;45.50;24.23;;;;;;;3.64;100.00;102383.56;5036084;28;20036;-74
2023/02/12 10:22:34;;;;;;;48.38;26.20;;;;;;;3.68;100.00;102391.19;5020876;28;20112;-73
2023/02/12 10:25:11;;;;;;;43.53;24.80;;;;;;;3.73;100.00;102399.69;5038558;28;20025;-73
2023/02/12 10:27:50;;;;;;;42.05;23.70;;;;;;;3.76;100.00;102399.28;5036893;28;20026;-74
2023/02/12 10:30:19;;;;;;;42.95;24.92;;;;;;;3.81;100.00;102399.50;5036842;28;20091;-74
2023/02/12 10:32:45;;;;;;;44.63;23.20;;;;;;;3.88;100.00;102401.47;5036585;28;20030;-74
2023/02/12 10:35:15;;;;;;;42.88;24.17;;;;;;;3.91;100.00;102401.06;5004791;28;20146;-74
2023/02/12 10:37:57;;;;;;;40.88;23.02;;;;;;;3.96;100.00;102398.53;5028694;28;20044;-74
2023/02/12 10:40:31;;;;;;;45.20;24.00;;;;;;;4.02;100.00;102393.06;5024335;28;20061;-74
2023/02/12 10:42:57;;;;;;;42.58;23.38;;;;;;;4.10;100.00;102394.81;5051902;28;20625;-75
2023/02/12 10:45:33;;;;;;;42.22;22.63;;;;;;;4.17;100.00;102405.81;5040553;28;20032;-74
2023/02/12 10:48:08;;;;;;;36.72;21.75;;;;;;;4.23;100.00;102394.84;5057059;28;20063;-74
2023/02/12 10:50:43;;;;;;;39.22;23.17;;;;;;;4.30;100.00;102399.53;5039284;28;20052;-74
2023/02/12 10:53:22;;;;;;;39.38;22.25;;;;;;;4.36;100.00;102393.19;5038717;28;20100;-74
2023/02/12 10:55:48;;;;;;;43.38;23.23;;;;;;;4.43;100.00;102394.91;5036918;28;20535;-73
2023/02/12 10:58:19;;;;;;;40.00;21.40;;;;;;;4.50;100.00;102396.84;5020241;28;20029;-74
2023/02/12 11:00:44;;;;;;;40.25;22.70;;;;;;;4.55;100.00;102389.66;4988024;28;20028;-74
2023/02/12 11:03:09;;;;;;;37.30;21.60;;;;;;;4.61;100.00;102391.56;5036826;28;20025;-74
2023/02/12 11:05:35;;;;;;;41.80;23.65;;;;;;;4.69;100.00;102398.78;5037810;28;20037;-74
2023/02/12 11:08:01;;;;;;;41.33;22.67;;;;;;;4.69;100.00;102393.28;5036830;28;20030;-74
2023/02/12 11:10:37;;;;;;;38.05;21.90;;;;;;;4.77;100.00;102392.25;5020201;28;20433;-74
2023/02/12 11:13:02;;;;;;;36.58;21.33;;;;;;;4.83;100.00;102383.13;5009696;28;20064;-73
2023/02/12 11:15:37;;;;;;;35.65;21.48;;;;;;;4.90;100.00;102386.72;5051994;28;20584;-74
2023/02/12 11:18:04;;;;;;;39.50;21.83;;;;;;;4.90;100.00;102372.97;5046604;28;20036;-74
2023/02/12 11:20:40;;;;;;;41.80;22.45;;;;;;;4.95;100.00;102372.34;5037620;28;20036;-73